Time;durP1;ratioP1;P1;durP2;ratioP2;P2;SDS_P1;SDS_P2;PMS_P1;PMS_P2;Temp;Humidity;BMP_temperature;BMP_pressure;BME280_temperature;BME280_humidity;BME280_pressure;Samples;Min_cycle;Max_cycle;Signal;HPM_P1;HPM_P2
2021/06/08 00:09:02;;;;;;;7.33;4.37;;;15.00;99.90;;;;;;20888955;28;20139;-76
2021/06/08 00:19:03;;;;;;;10.77;6.93;;;15.00;99.90;;;;;;20906114;28;20044;-75
2021/06/08 00:29:03;;;;;;;7.00;4.70;;;15.00;99.90;;;;;;20905925;28;20037;-76
2021/06/08 00:39:04;;;;;;;10.53;4.63;;;15.00;99.90;;;;;;20905450;28;20037;-77
2021/06/08 00:49:05;;;;;;;13.13;7.17;;;14.90;99.90;;;;;;20916033;28;20037;-78
2021/06/08 00:59:07;;;;;;;28.33;13.67;;;14.70;99.90;;;;;;20920281;28;20064;-76
2021/06/08 01:09:08;;;;;;;27.67;12.95;;;14.70;99.90;;;;;;20920627;28;20111;-77
2021/06/08 01:19:09;;;;;;;19.60;11.13;;;14.80;99.90;;;;;;20903077;28;20041;-77
2021/06/08 01:29:10;;;;;;;19.07;9.77;;;14.90;99.90;;;;;;20917493;28;20173;-77
2021/06/08 01:39:11;;;;;;;31.33;13.33;;;14.90;99.90;;;;;;20916589;28;20040;-76
2021/06/08 01:49:12;;;;;;;21.40;11.57;;;14.80;99.90;;;;;;20915974;28;20049;-77
2021/06/08 01:59:27;;;;;;;32.60;15.87;;;14.80;99.90;;;;;;20914655;28;20067;-76
2021/06/08 02:09:37;;;;;;;85.80;18.05;;;14.80;99.90;;;;;;20896671;28;20036;-77
2021/06/08 02:19:41;;;;;;;34.20;17.88;;;14.70;99.90;;;;;;20895745;28;20063;-77
2021/06/08 02:29:46;;;;;;;30.67;16.35;;;14.70;99.90;;;;;;20912862;28;20040;-76
2021/06/08 02:39:50;;;;;;;60.22;21.13;;;14.80;99.90;;;;;;20932660;22;20049;-78
2021/06/08 02:49:52;;;;;;;50.30;23.10;;;14.90;99.90;;;;;;20973950;28;20032;-78
2021/06/08 03:00:02;;;;;;;48.08;22.60;;;14.90;99.90;;;;;;20986481;28;20049;-78
2021/06/08 03:10:21;;;;;;;42.72;21.25;;;15.00;99.90;;;;;;21005789;28;20085;-79
2021/06/08 03:20:38;;;;;;;28.80;16.50;;;15.00;99.90;;;;;;21006124;28;20036;-79
2021/06/08 03:30:39;;;;;;;26.83;15.05;;;15.00;99.90;;;;;;20988822;28;20032;-78
2021/06/08 03:40:41;;;;;;;32.80;17.17;;;15.00;99.90;;;;;;20988352;28;20707;-79
2021/06/08 03:50:49;;;;;;;36.35;18.15;;;15.10;99.90;;;;;;21006141;28;20127;-79
2021/06/08 04:00:56;;;;;;;28.55;16.50;;;15.10;99.90;;;;;;20999818;28;20044;-79
2021/06/08 04:10:57;;;;;;;23.00;12.52;;;15.10;99.90;;;;;;20993359;28;20119;-81
2021/06/08 04:20:59;;;;;;;22.00;11.80;;;15.10;99.90;;;;;;20986067;28;20036;-79
2021/06/08 04:31:00;;;;;;;16.70;10.20;;;15.10;99.90;;;;;;21004168;28;20029;-79
2021/06/08 04:41:01;;;;;;;12.07;7.70;;;15.20;99.90;;;;;;20923417;28;20037;-79
2021/06/08 04:51:02;;;;;;;8.80;6.37;;;15.40;99.90;;;;;;20943185;28;20450;-79
2021/06/08 05:01:24;;;;;;;7.73;5.77;;;15.60;99.90;;;;;;20943957;28;20135;-80
2021/06/08 05:11:50;;;;;;;13.70;9.00;;;15.90;99.90;;;;;;20981867;28;20052;-80
2021/06/08 05:21:52;;;;;;;19.77;11.45;;;15.80;99.90;;;;;;20991430;28;20044;-79
2021/06/08 05:31:58;;;;;;;22.00;13.88;;;15.80;99.90;;;;;;20965025;28;20124;-79
2021/06/08 05:41:59;;;;;;;28.20;14.07;;;15.90;99.90;;;;;;20929854;28;20561;-80
2021/06/08 05:52:01;;;;;;;16.63;11.13;;;16.00;99.90;;;;;;20949285;28;20036;-79
2021/06/08 06:02:02;;;;;;;19.00;12.27;;;16.40;99.90;;;;;;21002277;28;20037;-78
2021/06/08 06:12:19;;;;;;;16.42;10.73;;;16.40;99.90;;;;;;20960083;28;20051;-80
2021/06/08 06:22:20;;;;;;;16.90;9.70;;;16.40;99.90;;;;;;20988023;28;20044;-79
2021/06/08 06:32:21;;;;;;;10.80;8.73;;;16.80;99.90;;;;;;20985782;28;20044;-82
2021/06/08 06:42:27;;;;;;;11.70;8.60;;;17.10;99.90;;;;;;20984794;28;20036;-81
2021/06/08 06:52:28;;;;;;;9.73;6.78;;;17.80;99.90;;;;;;21006771;28;20047;-79
2021/06/08 07:02:31;;;;;;;8.77;5.77;;;18.60;99.90;;;;;;21006440;28;20372;-81
2021/06/08 07:12:32;;;;;;;7.82;4.95;;;18.90;99.90;;;;;;20983795;28;20036;-79
2021/06/08 07:22:34;;;;;;;9.50;6.77;;;18.80;99.90;;;;;;21003658;28;20119;-81
2021/06/08 07:32:41;;;;;;;7.90;4.85;;;19.10;99.90;;;;;;20979653;28;20037;-79
2021/06/08 07:42:48;;;;;;;6.25;3.75;;;18.60;99.90;;;;;;21000174;28;20044;-82
2021/06/08 07:52:53;;;;;;;6.15;4.07;;;19.20;99.90;;;;;;20916181;28;20033;-80
2021/06/08 08:02:55;;;;;;;5.15;4.13;;;19.20;99.90;;;;;;20892828;28;20408;-81
2021/06/08 08:12:57;;;;;;;7.75;4.53;;;20.30;99.90;;;;;;20909169;28;20040;-81
2021/06/08 08:22:58;;;;;;;;;;;20.00;99.90;;;;;;20902338;28;20048;-79
2021/06/08 08:32:59;;;;;;;2.50;1.90;;;19.70;99.90;;;;;;20882566;28;19967;-81
2021/06/08 08:43:01;;;;;;;3.17;2.00;;;19.40;99.90;;;;;;21046527;23;20514;-74
2021/06/08 08:53:05;;;;;;;5.10;3.20;;;19.00;99.90;;;;;;21071523;28;20036;-74
2021/06/08 09:03:06;;;;;;;5.15;3.75;;;18.40;99.90;;;;;;21071145;28;20063;-74
2021/06/08 09:13:07;;;;;;;9.53;3.80;;;18.40;99.90;;;;;;21065975;28;20127;-75
2021/06/08 09:23:10;;;;;;;4.45;3.60;;;19.00;99.90;;;;;;21066128;28;20416;-75
2021/06/08 09:33:19;;;;;;;3.65;2.38;;;19.70;99.90;;;;;;21065630;28;20118;-75
2021/06/08 09:43:20;;;;;;;1.70;1.60;;;20.20;99.90;;;;;;21083279;28;20042;-74
2021/06/08 09:53:28;;;;;;;3.00;2.07;;;20.40;99.90;;;;;;21064749;28;20067;-74
2021/06/08 10:03:39;;;;;;;2.63;1.70;;;20.20;99.90;;;;;;21081503;28;20046;-74
2021/06/08 10:13:41;;;;;;;2.00;1.80;;;20.20;99.90;;;;;;21081125;28;20529;-74
2021/06/08 10:23:43;;;;;;;3.38;1.42;;;20.40;99.90;;;;;;21079825;28;20035;-74
2021/06/08 10:33:43;;;;;;;2.20;1.67;;;20.50;99.90;;;;;;21061279;28;20392;-74
2021/06/08 10:43:44;;;;;;;5.73;1.93;;;20.20;99.90;;;;;;21078312;28;20036;-74
2021/06/08 10:53:47;;;;;;;1.83;1.63;;;20.10;99.90;;;;;;21077796;28;20063;-74
2021/06/08 11:03:54;;;;;;;3.45;2.03;;;20.40;99.90;;;;;;21076749;28;20039;-74
2021/06/08 11:13:55;;;;;;;2.75;2.00;;;20.50;99.90;;;;;;21076075;28;20072;-72
2021/06/08 11:23:56;;;;;;;2.22;1.90;;;20.60;99.90;;;;;;21075542;28;20040;-74
2021/06/08 11:34:05;;;;;;;1.93;1.60;;;21.20;99.90;;;;;;21056215;28;20086;-74
2021/06/08 11:44:06;;;;;;;2.28;1.92;;;21.60;99.90;;;;;;21074339;28;20094;-73
2021/06/08 11:54:16;;;;;;;2.83;2.50;;;21.50;99.90;;;;;;21073971;28;20044;-74
2021/06/08 12:04:18;;;;;;;4.72;3.22;;;21.80;99.90;;;;;;21020824;28;20044;-74
2021/06/08 12:14:20;;;;;;;5.43;4.00;;;21.80;99.90;;;;;;20971867;28;20040;-73
2021/06/08 12:24:22;;;;;;;3.22;2.53;;;21.10;99.90;;;;;;20989271;28;20287;-73
2021/06/08 12:34:25;;;;;;;;;;;21.30;99.90;;;;;;20989276;28;20043;-73
2021/06/08 12:44:28;;;;;;;4.15;3.00;;;21.90;99.90;;;;;;20997843;28;19912;-73
2021/06/08 12:54:29;;;;;;;7.18;3.05;;;22.20;99.90;;;;;;21003456;28;20047;-73
2021/06/08 13:04:31;;;;;;;3.65;2.97;;;22.30;99.90;;;;;;21056170;28;20078;-73
2021/06/08 13:14:32;;;;;;;;;;;23.70;99.90;;;;;;21085922;28;20047;-73
2021/06/08 13:24:40;;;;;;;4.25;2.65;;;23.60;99.90;;;;;;21084987;28;19919;-73
2021/06/08 13:34:41;;;;;;;5.78;3.05;;;23.50;99.90;;;;;;21083771;28;20047;-73
2021/06/08 13:45:06;;;;;;;4.70;3.03;;;23.30;99.90;;;;;;21082773;28;20383;-73
2021/06/08 13:55:11;;;;;;;6.50;3.40;;;23.40;99.90;;;;;;21081804;28;20033;-73
2021/06/08 14:05:27;;;;;;;5.45;3.17;;;23.40;99.90;;;;;;21080832;28;20051;-73
2021/06/08 14:15:29;;;;;;;8.23;6.03;;;23.10;99.90;;;;;;21059754;28;20062;-73
2021/06/08 14:25:30;;;;;;;11.50;9.18;;;21.00;99.90;;;;;;21087919;28;20136;-73
2021/06/08 14:35:31;;;;;;;9.33;6.27;;;19.40;99.90;;;;;;21025999;28;20510;-73
2021/06/08 14:45:31;;;;;;;8.17;6.93;;;19.90;99.90;;;;;;21058330;28;20040;-73
2021/06/08 14:55:32;;;;;;;10.87;7.40;;;21.00;99.90;;;;;;21058460;28;20126;-72
2021/06/08 15:05:33;;;;;;;8.83;6.90;;;21.10;99.90;;;;;;21019754;28;20127;-72
2021/06/08 15:15:36;;;;;;;8.80;7.53;;;21.30;99.90;;;;;;20995102;28;20051;-72
2021/06/08 15:25:36;;;;;;;12.20;6.90;;;21.00;99.90;;;;;;21043954;28;20043;-74
2021/06/08 15:35:37;;;;;;;9.03;6.70;;;21.30;99.90;;;;;;20974262;28;20044;-73
2021/06/08 15:45:38;;;;;;;9.13;6.53;;;21.40;99.90;;;;;;20996430;28;20406;-73
2021/06/08 15:55:39;;;;;;;9.07;6.20;;;21.10;99.90;;;;;;20980841;28;20458;-73
2021/06/08 16:05:40;;;;;;;6.70;5.27;;;21.00;99.90;;;;;;20970680;28;20043;-73
2021/06/08 16:15:41;;;;;;;6.63;5.43;;;21.20;99.90;;;;;;21014850;28;20036;-73
2021/06/08 16:25:42;;;;;;;8.03;4.87;;;21.30;99.90;;;;;;21070128;28;20044;-73
2021/06/08 16:35:42;;;;;;;5.47;4.90;;;21.80;99.90;;;;;;21068508;28;20051;-73
2021/06/08 16:45:43;;;;;;;5.33;4.73;;;21.80;99.90;;;;;;21067706;28;20036;-73
2021/06/08 16:55:46;;;;;;;8.43;5.87;;;21.90;99.90;;;;;;21049617;28;20131;-73
2021/06/08 17:05:47;;;;;;;7.25;5.70;;;21.70;99.90;;;;;;21066101;28;20123;-72
2021/06/08 17:15:48;;;;;;;9.23;5.90;;;21.60;99.90;;;;;;21064828;28;20038;-73
2021/06/08 17:25:51;;;;;;;9.47;5.60;;;21.00;99.90;;;;;;21062630;28;20036;-73
2021/06/08 17:35:52;;;;;;;8.05;5.70;;;20.90;99.90;;;;;;21064253;28;20039;-73
2021/06/08 17:45:52;;;;;;;7.33;6.57;;;20.60;99.90;;;;;;21063069;28;20051;-73
2021/06/08 17:55:54;;;;;;;8.60;6.40;;;20.00;99.90;;;;;;21062695;28;20063;-72
2021/06/08 18:05:55;;;;;;;9.27;6.00;;;20.00;99.90;;;;;;21062207;28;20401;-72
2021/06/08 18:15:57;;;;;;;9.00;6.93;;;19.80;99.90;;;;;;21060885;28;20039;-72
2021/06/08 18:26:02;;;;;;;8.52;6.72;;;19.70;99.90;;;;;;21059868;28;20406;-73
2021/06/08 18:36:03;;;;;;;11.90;6.85;;;19.50;99.90;;;;;;21059231;28;20075;-73
2021/06/08 18:46:04;;;;;;;22.13;7.50;;;19.40;99.90;;;;;;21057446;28;20039;-73
2021/06/08 18:56:05;;;;;;;10.00;7.83;;;19.20;99.90;;;;;;21058202;28;20036;-73
2021/06/08 19:06:06;;;;;;;13.80;10.67;;;18.80;99.90;;;;;;21056610;28;20036;-73
2021/06/08 19:16:06;;;;;;;15.80;10.23;;;18.80;99.90;;;;;;21055813;28;20036;-73
2021/06/08 19:26:07;;;;;;;14.67;9.53;;;18.80;99.90;;;;;;21055256;28;20047;-73
2021/06/08 19:36:10;;;;;;;9.90;8.00;;;18.60;99.90;;;;;;21029068;28;20054;-73
2021/06/08 19:46:12;;;;;;;8.38;4.85;;;18.20;99.90;;;;;;21044102;28;20035;-73
2021/06/08 19:56:12;;;;;;;7.28;5.53;;;16.90;99.90;;;;;;21028399;28;20105;-73
2021/06/08 20:06:13;;;;;;;6.80;4.57;;;15.60;99.90;;;;;;21047429;28;20037;-73
2021/06/08 20:16:14;;;;;;;7.07;4.27;;;15.90;99.90;;;;;;20990401;28;20044;-72
2021/06/08 20:26:15;;;;;;;7.13;4.63;;;15.80;99.90;;;;;;21044718;28;20040;-73
2021/06/08 20:36:16;;;;;;;8.93;5.33;;;15.70;99.90;;;;;;21029574;28;20040;-72
2021/06/08 20:46:22;;;;;;;9.13;4.33;;;15.40;99.90;;;;;;21027785;28;20390;-73
2021/06/08 20:56:23;;;;;;;14.27;4.65;;;15.50;99.90;;;;;;21027643;28;20040;-73
2021/06/08 21:06:25;;;;;;;6.60;4.40;;;15.60;99.90;;;;;;21038011;28;20097;-73
2021/06/08 21:16:26;;;;;;;;;;;15.20;99.90;;;;;;21057513;28;20040;-73
2021/06/08 21:26:27;;;;;;;8.82;6.15;;;14.90;99.90;;;;;;21036335;28;20497;-73
2021/06/08 21:36:28;;;;;;;10.40;4.80;;;14.80;99.90;;;;;;21013491;28;20499;-74
2021/06/08 21:46:29;;;;;;;13.80;6.13;;;14.80;99.90;;;;;;20999670;28;20056;-74
2021/06/08 21:56:31;;;;;;;8.87;6.07;;;14.80;99.90;;;;;;20998665;28;20108;-74
2021/06/08 22:06:32;;;;;;;8.90;5.45;;;14.70;99.90;;;;;;20980144;28;20095;-74
2021/06/08 22:16:33;;;;;;;10.07;5.17;;;14.90;99.90;;;;;;20996356;28;20037;-74
2021/06/08 22:26:34;;;;;;;11.27;5.43;;;15.00;99.90;;;;;;20996128;28;20441;-74
2021/06/08 22:36:35;;;;;;;12.67;5.03;;;14.90;99.90;;;;;;20976839;28;20041;-73
2021/06/08 22:46:36;;;;;;;7.63;5.77;;;15.00;99.90;;;;;;20976466;28;20044;-74
2021/06/08 22:56:37;;;;;;;8.23;6.13;;;15.00;99.90;;;;;;20975490;28;20041;-74
2021/06/08 23:06:37;;;;;;;8.83;5.67;;;14.80;99.90;;;;;;20992600;28;20376;-74
2021/06/08 23:16:38;;;;;;;14.07;7.90;;;14.60;99.90;;;;;;20991861;28;20128;-74
2021/06/08 23:26:40;;;;;;;13.80;7.70;;;14.10;99.90;;;;;;20990350;28;20040;-74
2021/06/08 23:36:42;;;;;;;16.48;7.95;;;14.20;99.90;;;;;;20990731;28;20079;-74
2021/06/08 23:46:43;;;;;;;;;;;14.20;99.90;;;;;;20991559;28;20056;-74
2021/06/08 23:56:44;;;;;;;11.23;7.90;;;14.40;99.90;;;;;;20989965;28;19913;-74
